sensor_id;sensor_type;location;lat;lon;timestamp;pressure;altitude;pressure_sealevel;temperature;humidity
30682;BME280;17439;48.092;11.842;2024-01-15T00:01:30;94121.88;;;-0.88;67.38
30682;BME280;17439;48.092;11.842;2024-01-15T00:03:57;94119.75;;;-0.91;66.97
30682;BME280;17439;48.092;11.842;2024-01-15T00:06:23;94118.19;;;-0.92;66.91
30682;BME280;17439;48.092;11.842;2024-01-15T00:08:50;94129.09;;;-0.94;66.88
30682;BME280;17439;48.092;11.842;2024-01-15T00:11:17;94123.50;;;-0.97;66.56
30682;BME280;17439;48.092;11.842;2024-01-15T00:13:44;94112.06;;;-0.98;66.66
30682;BME280;17439;48.092;11.842;2024-01-15T00:16:10;94114.47;;;-1.01;66.63
30682;BME280;17439;48.092;11.842;2024-01-15T00:18:37;94121.94;;;-1.03;66.88
30682;BME280;17439;48.092;11.842;2024-01-15T00:21:04;94120.34;;;-1.04;67.42
30682;BME280;17439;48.092;11.842;2024-01-15T00:23:31;94116.63;;;-1.03;68.16
30682;BME280;17439;48.092;11.842;2024-01-15T00:25:57;94116.06;;;-1.00;69.27
30682;BME280;17439;48.092;11.842;2024-01-15T00:28:24;94116.84;;;-0.95;70.20
30682;BME280;17439;48.092;11.842;2024-01-15T00:30:51;94109.66;;;-0.89;71.39
30682;BME280;17439;48.092;11.842;2024-01-15T00:33:18;94109.59;;;-0.79;71.88
30682;BME280;17439;48.092;11.842;2024-01-15T00:35:45;94115.94;;;-0.64;72.63
30682;BME280;17439;48.092;11.842;2024-01-15T00:38:11;94115.91;;;-0.54;73.18
30682;BME280;17439;48.092;11.842;2024-01-15T00:40:38;94118.47;;;-0.39;73.67
30682;BME280;17439;48.092;11.842;2024-01-15T00:43:05;94126.16;;;-0.27;74.09
30682;BME280;17439;48.092;11.842;2024-01-15T00:45:31;94131.66;;;-0.13;74.31
30682;BME280;17439;48.092;11.842;2024-01-15T00:47:58;94137.94;;;0.07;74.39
30682;BME280;17439;48.092;11.842;2024-01-15T00:50:25;94128.25;;;0.21;74.59
30682;BME280;17439;48.092;11.842;2024-01-15T00:52:52;94130.56;;;0.33;74.68
30682;BME280;17439;48.092;11.842;2024-01-15T00:55:18;94134.47;;;0.46;74.81
30682;BME280;17439;48.092;11.842;2024-01-15T00:57:45;94129.06;;;0.56;74.41
30682;BME280;17439;48.092;11.842;2024-01-15T01:00:12;94136.91;;;0.71;74.30
30682;BME280;17439;48.092;11.842;2024-01-15T01:02:39;94114.69;;;0.81;74.32
30682;BME280;17439;48.092;11.842;2024-01-15T01:05:07;94144.72;;;0.92;74.16
30682;BME280;17439;48.092;11.842;2024-01-15T01:07:33;94142.25;;;1.01;73.89
30682;BME280;17439;48.092;11.842;2024-01-15T01:10:00;94137.09;;;1.09;73.96
30682;BME280;17439;48.092;11.842;2024-01-15T01:12:27;94143.13;;;1.20;73.40
30682;BME280;17439;48.092;11.842;2024-01-15T01:14:54;94144.09;;;1.30;72.66
30682;BME280;17439;48.092;11.842;2024-01-15T01:17:21;94151.53;;;1.33;72.76
30682;BME280;17439;48.092;11.842;2024-01-15T01:19:49;94146.13;;;1.38;72.03
30682;BME280;17439;48.092;11.842;2024-01-15T01:22:16;94154.13;;;1.38;71.82
30682;BME280;17439;48.092;11.842;2024-01-15T01:24:43;94154.59;;;1.45;71.61
30682;BME280;17439;48.092;11.842;2024-01-15T01:27:09;94151.88;;;1.50;71.39
30682;BME280;17439;48.092;11.842;2024-01-15T01:29:36;94162.28;;;1.52;70.48
30682;BME280;17439;48.092;11.842;2024-01-15T01:32:03;94170.78;;;1.54;70.00
30682;BME280;17439;48.092;11.842;2024-01-15T01:34:32;94171.34;;;1.51;69.34
30682;BME280;17439;48.092;11.842;2024-01-15T01:37:00;94172.47;;;1.50;69.35
30682;BME280;17439;48.092;11.842;2024-01-15T01:39:27;94162.34;;;1.47;68.70
30682;BME280;17439;48.092;11.842;2024-01-15T01:41:53;94177.84;;;1.44;68.09
30682;BME280;17439;48.092;11.842;2024-01-15T01:44:20;94173.91;;;1.37;68.21
30682;BME280;17439;48.092;11.842;2024-01-15T01:46:47;94171.06;;;1.28;67.60
30682;BME280;17439;48.092;11.842;2024-01-15T01:49:14;94167.66;;;1.22;67.06
30682;BME280;17439;48.092;11.842;2024-01-15T01:51:41;94167.72;;;1.17;67.17
30682;BME280;17439;48.092;11.842;2024-01-15T01:54:08;94161.09;;;1.09;66.76
30682;BME280;17439;48.092;11.842;2024-01-15T01:56:36;94167.56;;;1.03;66.81
30682;BME280;17439;48.092;11.842;2024-01-15T01:59:03;94166.56;;;0.99;66.60
30682;BME280;17439;48.092;11.842;2024-01-15T02:01:31;94172.22;;;0.93;66.08
30682;BME280;17439;48.092;11.842;2024-01-15T02:03:59;94170.41;;;0.88;66.13
30682;BME280;17439;48.092;11.842;2024-01-15T02:06:26;94169.97;;;0.76;66.02
30682;BME280;17439;48.092;11.842;2024-01-15T02:08:54;94170.53;;;0.72;66.17
30682;BME280;17439;48.092;11.842;2024-01-15T02:11:20;94178.06;;;0.65;66.24
30682;BME280;17439;48.092;11.842;2024-01-15T02:13:47;94176.97;;;0.66;66.27
30682;BME280;17439;48.092;11.842;2024-01-15T02:16:14;94173.84;;;0.59;66.22
30682;BME280;17439;48.092;11.842;2024-01-15T02:18:45;94180.78;;;0.55;65.20
30682;BME280;17439;48.092;11.842;2024-01-15T02:21:12;94174.13;;;0.52;66.45
30682;BME280;17439;48.092;11.842;2024-01-15T02:23:39;94181.34;;;0.52;66.49
30682;BME280;17439;48.092;11.842;2024-01-15T02:26:07;94172.34;;;0.48;66.36
30682;BME280;17439;48.092;11.842;2024-01-15T02:28:34;94181.91;;;0.49;66.51
30682;BME280;17439;48.092;11.842;2024-01-15T02:31:01;94189.91;;;0.49;66.40
30682;BME280;17439;48.092;11.842;2024-01-15T02:33:28;94183.78;;;0.48;66.72
30682;BME280;17439;48.092;11.842;2024-01-15T02:35:55;94186.69;;;0.52;66.66
30682;BME280;17439;48.092;11.842;2024-01-15T02:38:21;94181.06;;;0.53;66.63
30682;BME280;17439;48.092;11.842;2024-01-15T02:40:49;94200.75;;;0.63;66.50
30682;BME280;17439;48.092;11.842;2024-01-15T02:43:16;94199.97;;;0.62;66.65
30682;BME280;17439;48.092;11.842;2024-01-15T02:45:42;94189.81;;;0.64;66.79
30682;BME280;17439;48.092;11.842;2024-01-15T02:48:09;94201.50;;;0.68;66.71
30682;BME280;17439;48.092;11.842;2024-01-15T02:50:36;94212.16;;;0.68;66.53
30682;BME280;17439;48.092;11.842;2024-01-15T02:53:03;94217.22;;;0.70;66.63
30682;BME280;17439;48.092;11.842;2024-01-15T02:55:30;94213.50;;;0.71;66.63
30682;BME280;17439;48.092;11.842;2024-01-15T02:57:57;94215.38;;;0.70;66.53
30682;BME280;17439;48.092;11.842;2024-01-15T03:00:24;94217.75;;;0.72;66.43
30682;BME280;17439;48.092;11.842;2024-01-15T03:02:51;94223.59;;;0.74;65.94
30682;BME280;17439;48.092;11.842;2024-01-15T03:05:18;94220.66;;;0.76;66.16
30682;BME280;17439;48.092;11.842;2024-01-15T03:07:44;94218.25;;;0.74;65.94
30682;BME280;17439;48.092;11.842;2024-01-15T03:10:11;94211.59;;;0.77;65.46
30682;BME280;17439;48.092;11.842;2024-01-15T03:12:38;94198.47;;;0.80;65.03
30682;BME280;17439;48.092;11.842;2024-01-15T03:15:05;94194.75;;;0.76;65.48
30682;BME280;17439;48.092;11.842;2024-01-15T03:17:32;94191.88;;;0.72;65.51
30682;BME280;17439;48.092;11.842;2024-01-15T03:19:58;94189.97;;;0.73;65.84
30682;BME280;17439;48.092;11.842;2024-01-15T03:22:25;94184.66;;;0.73;65.79
30682;BME280;17439;48.092;11.842;2024-01-15T03:24:52;94188.63;;;0.76;65.11
30682;BME280;17439;48.092;11.842;2024-01-15T03:27:19;94193.97;;;0.76;65.26
30682;BME280;17439;48.092;11.842;2024-01-15T03:29:46;94199.31;;;0.76;65.29
30682;BME280;17439;48.092;11.842;2024-01-15T03:32:13;94192.91;;;0.77;65.24
30682;BME280;17439;48.092;11.842;2024-01-15T03:34:40;94179.03;;;0.75;65.23
30682;BME280;17439;48.092;11.842;2024-01-15T03:37:07;94194.75;;;0.76;65.02
30682;BME280;17439;48.092;11.842;2024-01-15T03:39:33;94200.38;;;0.75;65.12
30682;BME280;17439;48.092;11.842;2024-01-15T03:42:00;94191.59;;;0.74;65.25
30682;BME280;17439;48.092;11.842;2024-01-15T03:44:27;94196.38;;;0.77;64.69
30682;BME280;17439;48.092;11.842;2024-01-15T03:46:54;94200.09;;;0.76;65.38
30682;BME280;17439;48.092;11.842;2024-01-15T03:49:20;94209.44;;;0.79;64.92
30682;BME280;17439;48.092;11.842;2024-01-15T03:51:47;94207.03;;;0.77;65.24
30682;BME280;17439;48.092;11.842;2024-01-15T03:54:14;94204.38;;;0.77;65.18
30682;BME280;17439;48.092;11.842;2024-01-15T03:56:45;94192.91;;;0.77;65.45
30682;BME280;17439;48.092;11.842;2024-01-15T03:59:11;94203.31;;;0.78;64.97
30682;BME280;17439;48.092;11.842;2024-01-15T04:01:38;94196.59;;;0.81;64.74
30682;BME280;17439;48.092;11.842;2024-01-15T04:04:05;94208.38;;;0.80;64.55
30682;BME280;17439;48.092;11.842;2024-01-15T04:06:32;94186.47;;;0.78;64.46
30682;BME280;17439;48.092;11.842;2024-01-15T04:08:59;94182.53;;;0.75;64.80
30682;BME280;17439;48.092;11.842;2024-01-15T04:11:25;94187.56;;;0.77;64.40
30682;BME280;17439;48.092;11.842;2024-01-15T04:13:52;94189.72;;;0.75;64.76
30682;BME280;17439;48.092;11.842;2024-01-15T04:16:19;94178.25;;;0.74;64.85
30682;BME280;17439;48.092;11.842;2024-01-15T04:18:45;94181.19;;;0.72;65.13
30682;BME280;17439;48.092;11.842;2024-01-15T04:21:12;94176.91;;;0.71;65.01
30682;BME280;17439;48.092;11.842;2024-01-15T04:23:39;94181.47;;;0.71;65.34
30682;BME280;17439;48.092;11.842;2024-01-15T04:26:06;94183.34;;;0.70;65.32
30682;BME280;17439;48.092;11.842;2024-01-15T04:28:33;94179.59;;;0.71;65.46
30682;BME280;17439;48.092;11.842;2024-01-15T04:30:59;94178.81;;;0.71;65.47
30682;BME280;17439;48.092;11.842;2024-01-15T04:33:26;94197.19;;;0.72;65.37
30682;BME280;17439;48.092;11.842;2024-01-15T04:35:53;94187.09;;;0.69;65.27
30682;BME280;17439;48.092;11.842;2024-01-15T04:38:20;94179.88;;;0.70;65.34
30682;BME280;17439;48.092;11.842;2024-01-15T04:40:47;94190.53;;;0.70;65.29
30682;BME280;17439;48.092;11.842;2024-01-15T04:43:13;94187.09;;;0.69;65.51
30682;BME280;17439;48.092;11.842;2024-01-15T04:45:40;94183.63;;;0.69;65.58
30682;BME280;17439;48.092;11.842;2024-01-15T04:48:07;94180.47;;;0.67;65.99
30682;BME280;17439;48.092;11.842;2024-01-15T04:50:34;94190.03;;;0.68;65.84
30682;BME280;17439;48.092;11.842;2024-01-15T04:53:00;94177.78;;;0.67;65.25
30682;BME280;17439;48.092;11.842;2024-01-15T04:55:27;94193.22;;;0.70;65.70
30682;BME280;17439;48.092;11.842;2024-01-15T04:57:54;94191.63;;;0.69;65.66
30682;BME280;17439;48.092;11.842;2024-01-15T05:00:21;94188.16;;;0.68;65.81
30682;BME280;17439;48.092;11.842;2024-01-15T05:02:47;94186.56;;;0.67;65.99
30682;BME280;17439;48.092;11.842;2024-01-15T05:05:14;94175.91;;;0.67;66.00
30682;BME280;17439;48.092;11.842;2024-01-15T05:07:41;94177.47;;;0.68;66.15
30682;BME280;17439;48.092;11.842;2024-01-15T05:10:08;94179.09;;;0.69;66.13
30682;BME280;17439;48.092;11.842;2024-01-15T05:12:35;94185.19;;;0.70;66.13
30682;BME280;17439;48.092;11.842;2024-01-15T05:15:02;94183.34;;;0.70;66.12
30682;BME280;17439;48.092;11.842;2024-01-15T05:17:29;94164.44;;;0.67;66.05
30682;BME280;17439;48.092;11.842;2024-01-15T05:19:55;94181.25;;;0.67;66.22
30682;BME280;17439;48.092;11.842;2024-01-15T05:22:22;94176.41;;;0.69;66.09
30682;BME280;17439;48.092;11.842;2024-01-15T05:24:49;94176.41;;;0.69;66.04
30682;BME280;17439;48.092;11.842;2024-01-15T05:27:16;94163.06;;;0.69;66.07
30682;BME280;17439;48.092;11.842;2024-01-15T05:29:43;94153.47;;;0.68;66.02
30682;BME280;17439;48.092;11.842;2024-01-15T05:32:09;94156.13;;;0.68;66.10
30682;BME280;17439;48.092;11.842;2024-01-15T05:34:36;94157.47;;;0.71;65.90
30682;BME280;17439;48.092;11.842;2024-01-15T05:37:03;94167.06;;;0.72;65.68
30682;BME280;17439;48.092;11.842;2024-01-15T05:39:30;94164.69;;;0.70;65.79
30682;BME280;17439;48.092;11.842;2024-01-15T05:41:58;94174.25;;;0.71;65.81
30682;BME280;17439;48.092;11.842;2024-01-15T05:44:24;94174.31;;;0.66;65.63
30682;BME280;17439;48.092;11.842;2024-01-15T05:46:51;94174.53;;;0.70;66.09
30682;BME280;17439;48.092;11.842;2024-01-15T05:49:18;94163.06;;;0.69;65.91
30682;BME280;17439;48.092;11.842;2024-01-15T05:51:45;94167.34;;;0.70;66.23
30682;BME280;17439;48.092;11.842;2024-01-15T05:54:12;94173.19;;;0.72;66.28
30682;BME280;17439;48.092;11.842;2024-01-15T05:56:38;94180.13;;;0.74;66.12
30682;BME280;17439;48.092;11.842;2024-01-15T05:59:05;94176.38;;;0.75;66.38
30682;BME280;17439;48.092;11.842;2024-01-15T06:01:32;94177.97;;;0.76;66.29
30682;BME280;17439;48.092;11.842;2024-01-15T06:03:59;94172.34;;;0.77;66.03
30682;BME280;17439;48.092;11.842;2024-01-15T06:06:26;94177.69;;;0.77;66.08
30682;BME280;17439;48.092;11.842;2024-01-15T06:08:52;94181.69;;;0.80;65.98
30682;BME280;17439;48.092;11.842;2024-01-15T06:11:19;94175.53;;;0.79;66.09
30682;BME280;17439;48.092;11.842;2024-01-15T06:13:46;94174.75;;;0.79;65.91
30682;BME280;17439;48.092;11.842;2024-01-15T06:16:14;94173.69;;;0.80;65.96
30682;BME280;17439;48.092;11.842;2024-01-15T06:18:41;94171.28;;;0.78;65.81
30682;BME280;17439;48.092;11.842;2024-01-15T06:21:08;94174.75;;;0.79;65.96
30682;BME280;17439;48.092;11.842;2024-01-15T06:23:34;94183.03;;;0.77;65.89
30682;BME280;17439;48.092;11.842;2024-01-15T06:26:01;94188.09;;;0.79;65.72
30682;BME280;17439;48.092;11.842;2024-01-15T06:28:28;94175.03;;;0.77;65.87
30682;BME280;17439;48.092;11.842;2024-01-15T06:30:55;94188.63;;;0.76;65.87
30682;BME280;17439;48.092;11.842;2024-01-15T06:33:21;94174.22;;;0.77;65.73
30682;BME280;17439;48.092;11.842;2024-01-15T06:35:48;94188.38;;;0.77;65.68
30682;BME280;17439;48.092;11.842;2024-01-15T06:38:15;94185.19;;;0.75;65.75
30682;BME280;17439;48.092;11.842;2024-01-15T06:40:42;94176.38;;;0.75;65.77
30682;BME280;17439;48.092;11.842;2024-01-15T06:43:08;94174.78;;;0.74;65.85
30682;BME280;17439;48.092;11.842;2024-01-15T06:45:35;94176.91;;;0.71;65.93
30682;BME280;17439;48.092;11.842;2024-01-15T06:48:02;94175.06;;;0.72;65.82
30682;BME280;17439;48.092;11.842;2024-01-15T06:50:29;94181.47;;;0.71;65.97
30682;BME280;17439;48.092;11.842;2024-01-15T06:52:56;94181.19;;;0.72;65.97
30682;BME280;17439;48.092;11.842;2024-01-15T06:55:22;94190.81;;;0.74;66.27
30682;BME280;17439;48.092;11.842;2024-01-15T06:57:49;94188.91;;;0.74;66.27
30682;BME280;17439;48.092;11.842;2024-01-15T07:00:16;94185.47;;;0.74;66.24
30682;BME280;17439;48.092;11.842;2024-01-15T07:02:43;94192.38;;;0.75;66.16
30682;BME280;17439;48.092;11.842;2024-01-15T07:05:10;94192.38;;;0.75;66.26
30682;BME280;17439;48.092;11.842;2024-01-15T07:07:37;94187.84;;;0.75;66.27
30682;BME280;17439;48.092;11.842;2024-01-15T07:10:04;94193.19;;;0.75;66.28
30682;BME280;17439;48.092;11.842;2024-01-15T07:12:31;94197.44;;;0.76;66.58
30682;BME280;17439;48.092;11.842;2024-01-15T07:14:58;94190.25;;;0.77;66.45
30682;BME280;17439;48.092;11.842;2024-01-15T07:17:25;94190.25;;;0.77;66.62
30682;BME280;17439;48.092;11.842;2024-01-15T07:19:52;94186.47;;;0.78;66.55
30682;BME280;17439;48.092;11.842;2024-01-15T07:22:18;94189.16;;;0.78;66.49
30682;BME280;17439;48.092;11.842;2024-01-15T07:24:45;94178.47;;;0.78;66.55
30682;BME280;17439;48.092;11.842;2024-01-15T07:27:12;94169.97;;;0.76;66.55
30682;BME280;17439;48.092;11.842;2024-01-15T07:29:38;94177.97;;;0.76;66.44
30682;BME280;17439;48.092;11.842;2024-01-15T07:32:05;94172.34;;;0.77;66.58
30682;BME280;17439;48.092;11.842;2024-01-15T07:34:32;94176.63;;;0.78;66.75
30682;BME280;17439;48.092;11.842;2024-01-15T07:36:59;94177.41;;;0.79;66.67
30682;BME280;17439;48.092;11.842;2024-01-15T07:39:26;94181.69;;;0.80;66.88
30682;BME280;17439;48.092;11.842;2024-01-15T07:41:53;94181.41;;;0.81;66.73
30682;BME280;17439;48.092;11.842;2024-01-15T07:44:19;94180.59;;;0.81;66.52
30682;BME280;17439;48.092;11.842;2024-01-15T07:46:47;94175.78;;;0.83;66.73
30682;BME280;17439;48.092;11.842;2024-01-15T07:49:14;94184.31;;;0.85;66.96
30682;BME280;17439;48.092;11.842;2024-01-15T07:51:41;94178.19;;;0.84;66.93
30682;BME280;17439;48.092;11.842;2024-01-15T07:54:07;94183.75;;;0.88;66.97
30682;BME280;17439;48.092;11.842;2024-01-15T07:56:34;94182.66;;;0.89;67.14
30682;BME280;17439;48.092;11.842;2024-01-15T07:59:19;94178.91;;;0.90;66.93
30682;BME280;17439;48.092;11.842;2024-01-15T08:01:45;94186.63;;;0.92;67.18
30682;BME280;17439;48.092;11.842;2024-01-15T08:04:12;94182.63;;;0.94;67.15
30682;BME280;17439;48.092;11.842;2024-01-15T08:06:39;94180.47;;;0.96;67.25
30682;BME280;17439;48.092;11.842;2024-01-15T08:09:06;94176.72;;;0.97;67.31
30682;BME280;17439;48.092;11.842;2024-01-15T08:11:33;94157.47;;;1.00;67.25
30682;BME280;17439;48.092;11.842;2024-01-15T08:14:00;94162.53;;;1.02;67.16
30682;BME280;17439;48.092;11.842;2024-01-15T08:16:27;94156.59;;;1.05;67.11
30682;BME280;17439;48.092;11.842;2024-01-15T08:18:53;94146.19;;;1.08;66.85
30682;BME280;17439;48.092;11.842;2024-01-15T08:21:20;94136.00;;;1.11;66.90
30682;BME280;17439;48.092;11.842;2024-01-15T08:23:47;94145.63;;;1.12;66.86
30682;BME280;17439;48.092;11.842;2024-01-15T08:26:14;94143.75;;;1.12;66.70
30682;BME280;17439;48.092;11.842;2024-01-15T08:28:41;94150.13;;;1.16;66.68
30682;BME280;17439;48.092;11.842;2024-01-15T08:31:07;94146.63;;;1.16;66.53
30682;BME280;17439;48.092;11.842;2024-01-15T08:33:34;94151.69;;;1.17;66.36
30682;BME280;17439;48.092;11.842;2024-01-15T08:36:01;94147.16;;;1.18;66.51
30682;BME280;17439;48.092;11.842;2024-01-15T08:38:28;94142.91;;;1.17;66.78
30682;BME280;17439;48.092;11.842;2024-01-15T08:40:55;94153.00;;;1.20;66.59
30682;BME280;17439;48.092;11.842;2024-01-15T08:43:22;94149.25;;;1.21;65.85
30682;BME280;17439;48.092;11.842;2024-01-15T08:45:48;94158.84;;;1.22;66.24
30682;BME280;17439;48.092;11.842;2024-01-15T08:48:15;94160.44;;;1.23;66.04
30682;BME280;17439;48.092;11.842;2024-01-15T08:50:42;94151.63;;;1.22;66.12
30682;BME280;17439;48.092;11.842;2024-01-15T08:53:09;94165.22;;;1.26;66.02
30682;BME280;17439;48.092;11.842;2024-01-15T08:55:36;94164.94;;;1.27;65.58
30682;BME280;17439;48.092;11.842;2024-01-15T08:58:02;94166.25;;;1.30;65.21
30682;BME280;17439;48.092;11.842;2024-01-15T09:00:29;94158.50;;;1.29;65.17
30682;BME280;17439;48.092;11.842;2024-01-15T09:02:56;94159.81;;;1.31;64.72
30682;BME280;17439;48.092;11.842;2024-01-15T09:05:23;94176.91;;;1.30;64.68
30682;BME280;17439;48.092;11.842;2024-01-15T09:07:50;94163.53;;;1.35;64.19
30682;BME280;17439;48.092;11.842;2024-01-15T09:10:16;94169.44;;;1.32;64.51
30682;BME280;17439;48.092;11.842;2024-01-15T09:12:43;94170.22;;;1.33;64.60
30682;BME280;17439;48.092;11.842;2024-01-15T09:15:10;94149.94;;;1.32;64.78
30682;BME280;17439;48.092;11.842;2024-01-15T09:17:37;94161.16;;;1.34;65.14
30682;BME280;17439;48.092;11.842;2024-01-15T09:20:04;94168.88;;;1.35;65.15
30682;BME280;17439;48.092;11.842;2024-01-15T09:22:31;94170.16;;;1.38;65.21
30682;BME280;17439;48.092;11.842;2024-01-15T09:24:58;94173.63;;;1.38;65.25
30682;BME280;17439;48.092;11.842;2024-01-15T09:27:25;94165.59;;;1.38;65.45
30682;BME280;17439;48.092;11.842;2024-01-15T09:29:53;94172.28;;;1.41;65.92
30682;BME280;17439;48.092;11.842;2024-01-15T09:32:19;94165.84;;;1.42;65.69
30682;BME280;17439;48.092;11.842;2024-01-15T09:34:46;94174.09;;;1.45;66.00
30682;BME280;17439;48.092;11.842;2024-01-15T09:37:14;94171.94;;;1.48;65.96
30682;BME280;17439;48.092;11.842;2024-01-15T09:40:01;94175.97;;;1.45;65.46
30682;BME280;17439;48.092;11.842;2024-01-15T09:42:28;94171.88;;;1.53;66.04
30682;BME280;17439;48.092;11.842;2024-01-15T09:44:55;94168.63;;;1.56;65.92
30682;BME280;17439;48.092;11.842;2024-01-15T09:47:22;94168.88;;;1.59;65.87
30682;BME280;17439;48.092;11.842;2024-01-15T09:49:49;94165.38;;;1.59;66.15
30682;BME280;17439;48.092;11.842;2024-01-15T09:52:18;94161.34;;;1.61;65.92
30682;BME280;17439;48.092;11.842;2024-01-15T09:54:46;94161.84;;;1.63;65.86
30682;BME280;17439;48.092;11.842;2024-01-15T09:57:14;94159.44;;;1.67;66.12
30682;BME280;17439;48.092;11.842;2024-01-15T09:59:42;94150.53;;;1.72;65.78
30682;BME280;17439;48.092;11.842;2024-01-15T10:02:12;94150.25;;;1.73;65.69
30682;BME280;17439;48.092;11.842;2024-01-15T10:04:39;94150.50;;;1.77;66.22
30682;BME280;17439;48.092;11.842;2024-01-15T10:07:07;94149.63;;;1.81;66.02
30682;BME280;17439;48.092;11.842;2024-01-15T10:09:34;94147.47;;;1.84;66.36
30682;BME280;17439;48.092;11.842;2024-01-15T10:12:01;94143.94;;;1.88;66.31
30682;BME280;17439;48.092;11.842;2024-01-15T10:14:29;94137.72;;;1.93;65.94
30682;BME280;17439;48.092;11.842;2024-01-15T10:16:56;94142.53;;;1.91;65.65
30682;BME280;17439;48.092;11.842;2024-01-15T10:19:23;94131.72;;;2.01;66.42
30682;BME280;17439;48.092;11.842;2024-01-15T10:21:50;94131.66;;;2.06;66.30
30682;BME280;17439;48.092;11.842;2024-01-15T10:24:17;94139.59;;;2.11;66.26
30682;BME280;17439;48.092;11.842;2024-01-15T10:26:43;94128.03;;;2.16;66.20
30682;BME280;17439;48.092;11.842;2024-01-15T10:29:10;94118.63;;;2.18;66.13
30682;BME280;17439;48.092;11.842;2024-01-15T10:31:37;94115.38;;;2.22;66.07
30682;BME280;17439;48.092;11.842;2024-01-15T10:34:11;94122.03;;;2.24;64.84
30682;BME280;17439;48.092;11.842;2024-01-15T10:36:39;94115.31;;;2.27;65.73
30682;BME280;17439;48.092;11.842;2024-01-15T10:39:06;94126.50;;;2.29;65.76
30682;BME280;17439;48.092;11.842;2024-01-15T10:41:33;94121.16;;;2.29;64.46
30682;BME280;17439;48.092;11.842;2024-01-15T10:44:00;94113.66;;;2.31;65.17
30682;BME280;17439;48.092;11.842;2024-01-15T10:46:27;94107.44;;;2.35;65.33
30682;BME280;17439;48.092;11.842;2024-01-15T10:48:54;94110.31;;;2.39;64.96
30682;BME280;17439;48.092;11.842;2024-01-15T10:51:21;94108.41;;;2.40;64.91
30682;BME280;17439;48.092;11.842;2024-01-15T10:53:48;94108.63;;;2.43;64.98
30682;BME280;17439;48.092;11.842;2024-01-15T10:56:15;94102.19;;;2.44;65.12
30682;BME280;17439;48.092;11.842;2024-01-15T10:58:42;94101.63;;;2.47;65.15
30682;BME280;17439;48.092;11.842;2024-01-15T11:01:09;94092.22;;;2.50;64.86
30682;BME280;17439;48.092;11.842;2024-01-15T11:03:37;94087.66;;;2.50;64.59
30682;BME280;17439;48.092;11.842;2024-01-15T11:06:16;94096.69;;;2.54;64.60
30682;BME280;17439;48.092;11.842;2024-01-15T11:08:43;94094.22;;;2.58;63.73
30682;BME280;17439;48.092;11.842;2024-01-15T11:11:10;94097.69;;;2.59;64.10
30682;BME280;17439;48.092;11.842;2024-01-15T11:16:05;94078.38;;;2.62;63.90
30682;BME280;17439;48.092;11.842;2024-01-15T11:18:36;94074.09;;;2.61;63.66
30682;BME280;17439;48.092;11.842;2024-01-15T11:23:49;94074.63;;;2.63;63.83
30682;BME280;17439;48.092;11.842;2024-01-15T11:26:45;94062.81;;;2.64;63.54
30682;BME280;17439;48.092;11.842;2024-01-15T11:32:01;94046.16;;;2.67;63.52
30682;BME280;17439;48.092;11.842;2024-01-15T11:37:21;94051.13;;;2.73;64.36
30682;BME280;17439;48.092;11.842;2024-01-15T11:39:47;94048.16;;;2.75;64.70
30682;BME280;17439;48.092;11.842;2024-01-15T11:42:14;94047.56;;;2.78;64.83
30682;BME280;17439;48.092;11.842;2024-01-15T11:44:41;94043.72;;;2.84;64.63
30682;BME280;17439;48.092;11.842;2024-01-15T11:47:10;94039.66;;;2.87;64.67
30682;BME280;17439;48.092;11.842;2024-01-15T11:50:02;94054.31;;;2.89;64.05
30682;BME280;17439;48.092;11.842;2024-01-15T11:52:35;94038.25;;;2.89;63.85
30682;BME280;17439;48.092;11.842;2024-01-15T11:55:19;94059.06;;;2.93;63.50
30682;BME280;17439;48.092;11.842;2024-01-15T11:57:52;94050.84;;;2.89;63.11
30682;BME280;17439;48.092;11.842;2024-01-15T12:00:21;94047.69;;;2.87;64.10
30682;BME280;17439;48.092;11.842;2024-01-15T12:02:49;94047.97;;;2.85;64.13
30682;BME280;17439;48.092;11.842;2024-01-15T12:05:17;94048.88;;;2.81;64.63
30682;BME280;17439;48.092;11.842;2024-01-15T12:07:49;94036.38;;;2.76;63.21
30682;BME280;17439;48.092;11.842;2024-01-15T12:10:20;94034.56;;;2.71;63.55
30682;BME280;17439;48.092;11.842;2024-01-15T12:12:57;94042.41;;;2.68;64.18
30682;BME280;17439;48.092;11.842;2024-01-15T12:15:25;94028.53;;;2.66;65.38
30682;BME280;17439;48.092;11.842;2024-01-15T12:17:54;94023.25;;;2.61;65.45
30682;BME280;17439;48.092;11.842;2024-01-15T12:20:21;94016.34;;;2.60;66.12
30682;BME280;17439;48.092;11.842;2024-01-15T12:22:47;94013.94;;;2.58;66.45
30682;BME280;17439;48.092;11.842;2024-01-15T12:25:27;94015.53;;;2.59;66.52
30682;BME280;17439;48.092;11.842;2024-01-15T12:27:55;94014.94;;;2.62;66.71
30682;BME280;17439;48.092;11.842;2024-01-15T12:30:23;94006.91;;;2.62;66.63
30682;BME280;17439;48.092;11.842;2024-01-15T12:32:50;94016.03;;;2.61;66.71
30682;BME280;17439;48.092;11.842;2024-01-15T12:35:17;94006.41;;;2.60;66.35
30682;BME280;17439;48.092;11.842;2024-01-15T12:37:44;94003.75;;;2.60;66.62
30682;BME280;17439;48.092;11.842;2024-01-15T12:40:11;94001.34;;;2.59;66.74
30682;BME280;17439;48.092;11.842;2024-01-15T12:42:39;93992.84;;;2.57;66.16
30682;BME280;17439;48.092;11.842;2024-01-15T12:45:06;93979.56;;;2.51;66.45
30682;BME280;17439;48.092;11.842;2024-01-15T12:47:34;93978.56;;;2.47;66.57
30682;BME280;17439;48.092;11.842;2024-01-15T12:50:01;93972.50;;;2.42;66.38
30682;BME280;17439;48.092;11.842;2024-01-15T12:52:41;93968.34;;;2.35;66.39
30682;BME280;17439;48.092;11.842;2024-01-15T12:55:09;93965.44;;;2.32;66.60
30682;BME280;17439;48.092;11.842;2024-01-15T12:57:36;93966.84;;;2.29;67.18
30682;BME280;17439;48.092;11.842;2024-01-15T13:00:04;93966.03;;;2.29;67.40
30682;BME280;17439;48.092;11.842;2024-01-15T13:02:31;93964.47;;;2.28;67.49
30682;BME280;17439;48.092;11.842;2024-01-15T13:04:58;93970.09;;;2.26;67.85
30682;BME280;17439;48.092;11.842;2024-01-15T13:07:26;93969.00;;;2.27;68.04
30682;BME280;17439;48.092;11.842;2024-01-15T13:09:52;93973.56;;;2.27;68.08
30682;BME280;17439;48.092;11.842;2024-01-15T13:12:20;93969.00;;;2.27;68.49